sensor_id;sensor_type;location;lat;lon;timestamp;P1;durP1;ratioP1;P2;durP2;ratioP2
11394;SDS011;5753;54.402;10.220;2023-01-23T00:02:20;3.70;;;1.98;;
11394;SDS011;5753;54.402;10.220;2023-01-23T00:04:49;10.13;;;4.40;;
11394;SDS011;5753;54.402;10.220;2023-01-23T00:07:15;3.72;;;3.15;;
11394;SDS011;5753;54.402;10.220;2023-01-23T00:09:42;9.55;;;2.95;;
11394;SDS011;5753;54.402;10.220;2023-01-23T00:12:08;10.10;;;2.78;;
11394;SDS011;5753;54.402;10.220;2023-01-23T00:14:34;4.18;;;3.20;;
11394;SDS011;5753;54.402;10.220;2023-01-23T00:17:00;7.10;;;2.40;;
11394;SDS011;5753;54.402;10.220;2023-01-23T00:19:26;3.78;;;3.40;;
11394;SDS011;5753;54.402;10.220;2023-01-23T00:21:52;6.50;;;2.05;;
11394;SDS011;5753;54.402;10.220;2023-01-23T00:24:19;4.63;;;3.00;;
11394;SDS011;5753;54.402;10.220;2023-01-23T00:26:45;13.38;;;4.75;;
11394;SDS011;5753;54.402;10.220;2023-01-23T00:29:11;3.80;;;3.40;;
11394;SDS011;5753;54.402;10.220;2023-01-23T00:31:39;4.85;;;3.03;;
11394;SDS011;5753;54.402;10.220;2023-01-23T00:34:06;3.72;;;2.13;;
11394;SDS011;5753;54.402;10.220;2023-01-23T00:36:36;3.42;;;1.85;;
11394;SDS011;5753;54.402;10.220;2023-01-23T00:39:05;3.15;;;2.15;;
11394;SDS011;5753;54.402;10.220;2023-01-23T00:41:51;6.97;;;3.42;;
11394;SDS011;5753;54.402;10.220;2023-01-23T00:44:17;15.95;;;4.13;;
11394;SDS011;5753;54.402;10.220;2023-01-23T00:46:44;6.05;;;3.08;;
11394;SDS011;5753;54.402;10.220;2023-01-23T00:49:11;3.50;;;2.60;;
11394;SDS011;5753;54.402;10.220;2023-01-23T00:51:38;2.78;;;2.08;;
11394;SDS011;5753;54.402;10.220;2023-01-23T00:54:05;3.83;;;2.20;;
11394;SDS011;5753;54.402;10.220;2023-01-23T00:56:31;5.75;;;3.28;;
11394;SDS011;5753;54.402;10.220;2023-01-23T00:58:57;6.05;;;3.05;;
11394;SDS011;5753;54.402;10.220;2023-01-23T01:01:23;4.90;;;3.42;;
11394;SDS011;5753;54.402;10.220;2023-01-23T01:03:50;3.58;;;2.92;;
11394;SDS011;5753;54.402;10.220;2023-01-23T01:06:16;6.40;;;3.15;;
11394;SDS011;5753;54.402;10.220;2023-01-23T01:08:42;5.45;;;3.42;;
11394;SDS011;5753;54.402;10.220;2023-01-23T01:11:08;5.88;;;3.40;;
11394;SDS011;5753;54.402;10.220;2023-01-23T01:13:34;2.53;;;2.15;;
11394;SDS011;5753;54.402;10.220;2023-01-23T01:16:00;3.75;;;3.08;;
11394;SDS011;5753;54.402;10.220;2023-01-23T01:18:27;3.25;;;2.35;;
11394;SDS011;5753;54.402;10.220;2023-01-23T01:20:54;5.45;;;2.38;;
11394;SDS011;5753;54.402;10.220;2023-01-23T01:23:20;5.28;;;3.67;;
11394;SDS011;5753;54.402;10.220;2023-01-23T01:25:46;4.65;;;3.30;;
11394;SDS011;5753;54.402;10.220;2023-01-23T01:28:12;2.60;;;2.33;;
11394;SDS011;5753;54.402;10.220;2023-01-23T01:30:39;14.45;;;4.05;;
11394;SDS011;5753;54.402;10.220;2023-01-23T01:33:05;5.38;;;2.30;;
11394;SDS011;5753;54.402;10.220;2023-01-23T01:35:32;5.75;;;3.42;;
11394;SDS011;5753;54.402;10.220;2023-01-23T01:37:58;4.20;;;3.53;;
11394;SDS011;5753;54.402;10.220;2023-01-23T01:40:31;9.48;;;3.30;;
11394;SDS011;5753;54.402;10.220;2023-01-23T01:43:01;6.53;;;3.20;;
11394;SDS011;5753;54.402;10.220;2023-01-23T01:51:19;14.95;;;3.03;;
11394;SDS011;5753;54.402;10.220;2023-01-23T01:53:51;9.02;;;3.22;;
11394;SDS011;5753;54.402;10.220;2023-01-23T01:56:26;7.40;;;3.25;;
11394;SDS011;5753;54.402;10.220;2023-01-23T01:58:56;3.80;;;2.72;;
11394;SDS011;5753;54.402;10.220;2023-01-23T02:01:25;3.60;;;2.53;;
11394;SDS011;5753;54.402;10.220;2023-01-23T02:03:52;4.07;;;2.72;;
11394;SDS011;5753;54.402;10.220;2023-01-23T02:06:19;2.20;;;2.05;;
11394;SDS011;5753;54.402;10.220;2023-01-23T02:11:19;2.88;;;2.38;;
11394;SDS011;5753;54.402;10.220;2023-01-23T02:13:45;6.75;;;3.22;;
11394;SDS011;5753;54.402;10.220;2023-01-23T02:16:12;10.05;;;3.15;;
11394;SDS011;5753;54.402;10.220;2023-01-23T02:18:42;3.92;;;3.47;;
11394;SDS011;5753;54.402;10.220;2023-01-23T02:21:12;3.50;;;1.92;;
11394;SDS011;5753;54.402;10.220;2023-01-23T02:26:15;3.13;;;2.50;;
11394;SDS011;5753;54.402;10.220;2023-01-23T02:28:45;3.22;;;2.92;;
11394;SDS011;5753;54.402;10.220;2023-01-23T02:31:13;4.22;;;3.20;;
11394;SDS011;5753;54.402;10.220;2023-01-23T02:33:44;3.83;;;3.03;;
11394;SDS011;5753;54.402;10.220;2023-01-23T02:36:20;7.75;;;3.30;;
11394;SDS011;5753;54.402;10.220;2023-01-23T02:41:35;6.45;;;3.22;;
11394;SDS011;5753;54.402;10.220;2023-01-23T02:44:12;3.30;;;2.72;;
11394;SDS011;5753;54.402;10.220;2023-01-23T02:46:49;6.60;;;3.03;;
11394;SDS011;5753;54.402;10.220;2023-01-23T02:49:15;2.65;;;1.65;;
11394;SDS011;5753;54.402;10.220;2023-01-23T02:51:41;3.83;;;2.83;;
11394;SDS011;5753;54.402;10.220;2023-01-23T02:54:07;2.03;;;1.77;;
11394;SDS011;5753;54.402;10.220;2023-01-23T02:56:33;3.38;;;2.03;;
11394;SDS011;5753;54.402;10.220;2023-01-23T02:58:59;7.43;;;2.42;;
11394;SDS011;5753;54.402;10.220;2023-01-23T03:01:44;4.13;;;2.85;;
11394;SDS011;5753;54.402;10.220;2023-01-23T03:04:10;7.30;;;3.00;;
11394;SDS011;5753;54.402;10.220;2023-01-23T03:06:36;6.20;;;2.83;;
11394;SDS011;5753;54.402;10.220;2023-01-23T03:09:07;7.43;;;2.95;;
11394;SDS011;5753;54.402;10.220;2023-01-23T03:11:36;3.53;;;3.22;;
11394;SDS011;5753;54.402;10.220;2023-01-23T03:14:05;4.40;;;2.65;;
11394;SDS011;5753;54.402;10.220;2023-01-23T03:16:32;4.05;;;2.80;;
11394;SDS011;5753;54.402;10.220;2023-01-23T03:19:00;4.10;;;2.63;;
11394;SDS011;5753;54.402;10.220;2023-01-23T03:21:32;3.70;;;2.55;;
11394;SDS011;5753;54.402;10.220;2023-01-23T03:24:04;3.17;;;2.47;;
11394;SDS011;5753;54.402;10.220;2023-01-23T03:26:31;10.15;;;3.33;;
11394;SDS011;5753;54.402;10.220;2023-01-23T03:28:57;6.25;;;2.28;;
11394;SDS011;5753;54.402;10.220;2023-01-23T03:31:42;2.50;;;2.00;;
11394;SDS011;5753;54.402;10.220;2023-01-23T03:34:09;5.10;;;3.38;;
11394;SDS011;5753;54.402;10.220;2023-01-23T03:36:35;6.10;;;3.10;;
11394;SDS011;5753;54.402;10.220;2023-01-23T03:39:02;6.22;;;3.08;;
11394;SDS011;5753;54.402;10.220;2023-01-23T03:41:48;6.30;;;2.83;;
11394;SDS011;5753;54.402;10.220;2023-01-23T03:44:15;5.85;;;2.35;;
11394;SDS011;5753;54.402;10.220;2023-01-23T03:46:43;4.20;;;3.15;;
11394;SDS011;5753;54.402;10.220;2023-01-23T03:49:10;6.85;;;4.10;;
11394;SDS011;5753;54.402;10.220;2023-01-23T03:51:36;3.65;;;2.15;;
11394;SDS011;5753;54.402;10.220;2023-01-23T03:54:02;5.20;;;2.10;;
11394;SDS011;5753;54.402;10.220;2023-01-23T03:56:28;7.10;;;2.88;;
11394;SDS011;5753;54.402;10.220;2023-01-23T03:58:54;5.68;;;1.88;;
11394;SDS011;5753;54.402;10.220;2023-01-23T04:01:21;2.95;;;2.08;;
11394;SDS011;5753;54.402;10.220;2023-01-23T04:03:48;8.13;;;3.20;;
11394;SDS011;5753;54.402;10.220;2023-01-23T04:06:15;5.28;;;2.83;;
11394;SDS011;5753;54.402;10.220;2023-01-23T04:08:42;3.92;;;2.22;;
11394;SDS011;5753;54.402;10.220;2023-01-23T04:11:08;3.40;;;2.17;;
11394;SDS011;5753;54.402;10.220;2023-01-23T04:13:36;13.90;;;3.25;;
11394;SDS011;5753;54.402;10.220;2023-01-23T04:16:02;8.00;;;2.13;;
11394;SDS011;5753;54.402;10.220;2023-01-23T04:18:29;2.92;;;2.35;;
11394;SDS011;5753;54.402;10.220;2023-01-23T04:20:56;4.75;;;2.67;;
11394;SDS011;5753;54.402;10.220;2023-01-23T04:23:22;3.47;;;2.70;;
11394;SDS011;5753;54.402;10.220;2023-01-23T04:25:49;2.20;;;2.00;;
11394;SDS011;5753;54.402;10.220;2023-01-23T04:28:16;2.53;;;2.20;;
11394;SDS011;5753;54.402;10.220;2023-01-23T04:30:43;3.10;;;1.73;;
11394;SDS011;5753;54.402;10.220;2023-01-23T04:33:10;5.65;;;3.30;;
11394;SDS011;5753;54.402;10.220;2023-01-23T04:35:36;8.10;;;3.28;;
11394;SDS011;5753;54.402;10.220;2023-01-23T04:38:02;8.05;;;2.58;;
11394;SDS011;5753;54.402;10.220;2023-01-23T04:40:28;5.22;;;1.95;;
11394;SDS011;5753;54.402;10.220;2023-01-23T04:42:54;4.47;;;2.08;;
11394;SDS011;5753;54.402;10.220;2023-01-23T04:45:20;5.97;;;2.10;;
11394;SDS011;5753;54.402;10.220;2023-01-23T04:47:47;7.40;;;2.60;;
11394;SDS011;5753;54.402;10.220;2023-01-23T04:50:13;4.82;;;1.98;;
11394;SDS011;5753;54.402;10.220;2023-01-23T04:52:40;8.20;;;3.40;;
11394;SDS011;5753;54.402;10.220;2023-01-23T04:55:06;3.75;;;3.40;;
11394;SDS011;5753;54.402;10.220;2023-01-23T04:57:32;4.63;;;2.53;;
11394;SDS011;5753;54.402;10.220;2023-01-23T04:59:58;4.22;;;2.92;;
11394;SDS011;5753;54.402;10.220;2023-01-23T05:02:25;2.53;;;2.33;;
11394;SDS011;5753;54.402;10.220;2023-01-23T05:04:51;6.03;;;2.80;;
11394;SDS011;5753;54.402;10.220;2023-01-23T05:07:17;2.60;;;2.35;;
11394;SDS011;5753;54.402;10.220;2023-01-23T05:09:43;5.18;;;3.40;;
11394;SDS011;5753;54.402;10.220;2023-01-23T05:12:09;12.40;;;2.25;;
11394;SDS011;5753;54.402;10.220;2023-01-23T05:14:35;3.05;;;2.13;;
11394;SDS011;5753;54.402;10.220;2023-01-23T05:17:01;3.40;;;2.63;;
11394;SDS011;5753;54.402;10.220;2023-01-23T05:19:27;3.10;;;2.00;;
11394;SDS011;5753;54.402;10.220;2023-01-23T05:21:53;6.28;;;2.25;;
11394;SDS011;5753;54.402;10.220;2023-01-23T05:24:20;3.10;;;2.15;;
11394;SDS011;5753;54.402;10.220;2023-01-23T05:26:46;4.18;;;2.17;;
11394;SDS011;5753;54.402;10.220;2023-01-23T05:29:12;6.70;;;4.25;;
11394;SDS011;5753;54.402;10.220;2023-01-23T05:31:38;7.40;;;2.83;;
11394;SDS011;5753;54.402;10.220;2023-01-23T05:34:04;6.15;;;4.28;;
11394;SDS011;5753;54.402;10.220;2023-01-23T05:36:30;8.05;;;2.33;;
11394;SDS011;5753;54.402;10.220;2023-01-23T05:38:56;3.30;;;2.15;;
11394;SDS011;5753;54.402;10.220;2023-01-23T05:41:22;3.25;;;2.65;;
11394;SDS011;5753;54.402;10.220;2023-01-23T05:43:48;3.20;;;1.67;;
11394;SDS011;5753;54.402;10.220;2023-01-23T05:46:14;5.10;;;2.72;;
11394;SDS011;5753;54.402;10.220;2023-01-23T05:48:41;2.88;;;2.58;;
11394;SDS011;5753;54.402;10.220;2023-01-23T05:51:07;4.97;;;3.00;;
11394;SDS011;5753;54.402;10.220;2023-01-23T05:53:33;4.25;;;3.28;;
11394;SDS011;5753;54.402;10.220;2023-01-23T05:56:03;6.07;;;2.78;;
11394;SDS011;5753;54.402;10.220;2023-01-23T05:58:31;5.68;;;3.28;;
11394;SDS011;5753;54.402;10.220;2023-01-23T06:00:57;5.38;;;3.70;;
11394;SDS011;5753;54.402;10.220;2023-01-23T06:03:23;5.78;;;3.10;;
11394;SDS011;5753;54.402;10.220;2023-01-23T06:05:49;5.32;;;3.58;;
11394;SDS011;5753;54.402;10.220;2023-01-23T06:08:15;4.28;;;3.22;;
11394;SDS011;5753;54.402;10.220;2023-01-23T06:10:41;3.38;;;2.72;;
11394;SDS011;5753;54.402;10.220;2023-01-23T06:13:07;5.30;;;2.65;;
11394;SDS011;5753;54.402;10.220;2023-01-23T06:15:33;5.68;;;3.25;;
11394;SDS011;5753;54.402;10.220;2023-01-23T06:18:00;5.60;;;3.42;;
11394;SDS011;5753;54.402;10.220;2023-01-23T06:20:26;4.85;;;3.80;;
11394;SDS011;5753;54.402;10.220;2023-01-23T06:22:52;5.45;;;3.63;;
11394;SDS011;5753;54.402;10.220;2023-01-23T06:25:18;9.57;;;7.47;;
11394;SDS011;5753;54.402;10.220;2023-01-23T06:27:46;8.43;;;6.78;;
11394;SDS011;5753;54.402;10.220;2023-01-23T06:30:12;7.88;;;4.57;;
11394;SDS011;5753;54.402;10.220;2023-01-23T06:32:38;10.77;;;8.23;;
11394;SDS011;5753;54.402;10.220;2023-01-23T06:35:05;7.78;;;6.05;;
11394;SDS011;5753;54.402;10.220;2023-01-23T06:37:31;7.72;;;6.53;;
11394;SDS011;5753;54.402;10.220;2023-01-23T06:39:57;7.65;;;4.18;;
11394;SDS011;5753;54.402;10.220;2023-01-23T06:42:23;6.80;;;4.65;;
11394;SDS011;5753;54.402;10.220;2023-01-23T06:44:49;3.63;;;3.17;;
11394;SDS011;5753;54.402;10.220;2023-01-23T06:47:16;6.82;;;4.35;;
11394;SDS011;5753;54.402;10.220;2023-01-23T06:49:43;8.30;;;4.50;;
11394;SDS011;5753;54.402;10.220;2023-01-23T06:52:09;7.43;;;5.07;;
11394;SDS011;5753;54.402;10.220;2023-01-23T06:54:35;4.20;;;3.58;;
11394;SDS011;5753;54.402;10.220;2023-01-23T06:57:02;5.07;;;3.80;;
11394;SDS011;5753;54.402;10.220;2023-01-23T06:59:28;7.07;;;4.60;;
11394;SDS011;5753;54.402;10.220;2023-01-23T07:01:54;6.32;;;4.03;;
11394;SDS011;5753;54.402;10.220;2023-01-23T07:04:20;4.35;;;3.05;;
11394;SDS011;5753;54.402;10.220;2023-01-23T07:06:47;5.32;;;4.82;;
11394;SDS011;5753;54.402;10.220;2023-01-23T07:09:13;9.77;;;5.00;;
11394;SDS011;5753;54.402;10.220;2023-01-23T07:11:39;6.32;;;4.85;;
11394;SDS011;5753;54.402;10.220;2023-01-23T07:14:05;5.72;;;4.70;;
11394;SDS011;5753;54.402;10.220;2023-01-23T07:16:31;6.50;;;3.72;;
11394;SDS011;5753;54.402;10.220;2023-01-23T07:18:59;6.18;;;4.85;;
11394;SDS011;5753;54.402;10.220;2023-01-23T07:21:26;10.35;;;5.28;;
11394;SDS011;5753;54.402;10.220;2023-01-23T07:23:52;7.47;;;3.13;;
11394;SDS011;5753;54.402;10.220;2023-01-23T07:26:18;5.25;;;3.47;;
11394;SDS011;5753;54.402;10.220;2023-01-23T07:28:44;7.28;;;4.47;;
11394;SDS011;5753;54.402;10.220;2023-01-23T07:31:11;6.88;;;5.05;;
11394;SDS011;5753;54.402;10.220;2023-01-23T07:33:37;5.45;;;3.28;;
11394;SDS011;5753;54.402;10.220;2023-01-23T07:36:03;4.40;;;3.63;;
11394;SDS011;5753;54.402;10.220;2023-01-23T07:38:31;4.18;;;3.78;;
11394;SDS011;5753;54.402;10.220;2023-01-23T07:40:57;5.35;;;3.20;;
11394;SDS011;5753;54.402;10.220;2023-01-23T07:43:24;6.50;;;4.13;;
11394;SDS011;5753;54.402;10.220;2023-01-23T07:45:51;5.35;;;4.85;;
11394;SDS011;5753;54.402;10.220;2023-01-23T07:48:17;6.47;;;4.57;;
11394;SDS011;5753;54.402;10.220;2023-01-23T07:50:43;5.45;;;2.60;;
11394;SDS011;5753;54.402;10.220;2023-01-23T07:53:09;6.63;;;4.55;;
11394;SDS011;5753;54.402;10.220;2023-01-23T07:55:38;7.90;;;4.57;;
11394;SDS011;5753;54.402;10.220;2023-01-23T07:58:05;4.10;;;3.13;;
11394;SDS011;5753;54.402;10.220;2023-01-23T08:00:31;4.30;;;3.83;;
11394;SDS011;5753;54.402;10.220;2023-01-23T08:02:57;5.38;;;3.42;;
11394;SDS011;5753;54.402;10.220;2023-01-23T08:05:23;3.60;;;2.75;;
11394;SDS011;5753;54.402;10.220;2023-01-23T08:07:49;7.05;;;3.55;;
11394;SDS011;5753;54.402;10.220;2023-01-23T08:10:15;4.15;;;2.97;;
11394;SDS011;5753;54.402;10.220;2023-01-23T08:12:42;4.63;;;3.60;;
11394;SDS011;5753;54.402;10.220;2023-01-23T08:15:08;6.57;;;2.95;;
11394;SDS011;5753;54.402;10.220;2023-01-23T08:17:34;4.55;;;2.90;;
11394;SDS011;5753;54.402;10.220;2023-01-23T08:20:01;8.90;;;3.33;;
11394;SDS011;5753;54.402;10.220;2023-01-23T08:22:27;3.60;;;3.28;;
11394;SDS011;5753;54.402;10.220;2023-01-23T08:24:53;5.15;;;3.38;;
11394;SDS011;5753;54.402;10.220;2023-01-23T08:27:19;5.60;;;3.15;;
11394;SDS011;5753;54.402;10.220;2023-01-23T08:29:46;6.15;;;3.05;;
11394;SDS011;5753;54.402;10.220;2023-01-23T08:32:12;3.35;;;2.83;;
11394;SDS011;5753;54.402;10.220;2023-01-23T08:34:38;6.82;;;3.38;;
11394;SDS011;5753;54.402;10.220;2023-01-23T08:37:04;8.85;;;3.42;;
11394;SDS011;5753;54.402;10.220;2023-01-23T08:39:30;20.85;;;5.47;;
11394;SDS011;5753;54.402;10.220;2023-01-23T08:41:56;8.63;;;4.00;;
11394;SDS011;5753;54.402;10.220;2023-01-23T08:44:22;4.35;;;3.28;;
11394;SDS011;5753;54.402;10.220;2023-01-23T08:46:48;5.57;;;3.97;;
11394;SDS011;5753;54.402;10.220;2023-01-23T08:49:14;8.07;;;4.40;;
11394;SDS011;5753;54.402;10.220;2023-01-23T08:51:43;5.10;;;4.05;;
11394;SDS011;5753;54.402;10.220;2023-01-23T08:54:09;6.97;;;4.32;;
11394;SDS011;5753;54.402;10.220;2023-01-23T08:56:36;4.97;;;4.18;;
11394;SDS011;5753;54.402;10.220;2023-01-23T08:59:02;10.80;;;5.47;;
11394;SDS011;5753;54.402;10.220;2023-01-23T09:01:28;8.88;;;5.50;;
11394;SDS011;5753;54.402;10.220;2023-01-23T09:03:55;13.27;;;6.20;;
11394;SDS011;5753;54.402;10.220;2023-01-23T09:06:21;9.65;;;6.72;;
11394;SDS011;5753;54.402;10.220;2023-01-23T09:08:47;12.65;;;7.43;;
11394;SDS011;5753;54.402;10.220;2023-01-23T09:11:14;14.48;;;9.00;;
11394;SDS011;5753;54.402;10.220;2023-01-23T09:13:41;10.55;;;7.93;;
11394;SDS011;5753;54.402;10.220;2023-01-23T09:16:07;15.35;;;10.20;;
11394;SDS011;5753;54.402;10.220;2023-01-23T09:18:33;19.33;;;12.52;;
11394;SDS011;5753;54.402;10.220;2023-01-23T09:21:04;13.90;;;8.25;;
11394;SDS011;5753;54.402;10.220;2023-01-23T09:23:34;9.25;;;6.95;;
11394;SDS011;5753;54.402;10.220;2023-01-23T09:26:01;9.68;;;6.43;;
11394;SDS011;5753;54.402;10.220;2023-01-23T09:28:28;5.70;;;4.65;;
11394;SDS011;5753;54.402;10.220;2023-01-23T09:30:55;8.23;;;6.15;;
11394;SDS011;5753;54.402;10.220;2023-01-23T09:33:21;9.80;;;6.72;;
11394;SDS011;5753;54.402;10.220;2023-01-23T09:35:51;8.77;;;5.68;;
11394;SDS011;5753;54.402;10.220;2023-01-23T09:38:17;7.45;;;5.30;;
11394;SDS011;5753;54.402;10.220;2023-01-23T09:40:50;15.85;;;7.85;;
11394;SDS011;5753;54.402;10.220;2023-01-23T09:53:50;10.25;;;6.70;;
11394;SDS011;5753;54.402;10.220;2023-01-23T09:56:30;10.68;;;7.53;;
11394;SDS011;5753;54.402;10.220;2023-01-23T10:01:41;10.02;;;7.88;;
11394;SDS011;5753;54.402;10.220;2023-01-23T10:04:09;10.75;;;8.48;;
11394;SDS011;5753;54.402;10.220;2023-01-23T10:09:41;11.52;;;6.78;;
11394;SDS011;5753;54.402;10.220;2023-01-23T10:12:28;12.55;;;8.00;;
11394;SDS011;5753;54.402;10.220;2023-01-23T10:20:54;13.85;;;7.22;;
11394;SDS011;5753;54.402;10.220;2023-01-23T10:26:30;8.32;;;5.97;;
11394;SDS011;5753;54.402;10.220;2023-01-23T10:29:12;13.63;;;8.55;;
11394;SDS011;5753;54.402;10.220;2023-01-23T10:31:50;13.32;;;7.47;;
11394;SDS011;5753;54.402;10.220;2023-01-23T10:34:24;12.07;;;7.22;;
11394;SDS011;5753;54.402;10.220;2023-01-23T10:42:26;10.82;;;7.95;;
11394;SDS011;5753;54.402;10.220;2023-01-23T10:44:53;13.27;;;7.05;;
11394;SDS011;5753;54.402;10.220;2023-01-23T10:47:30;11.48;;;7.22;;
11394;SDS011;5753;54.402;10.220;2023-01-23T10:50:10;7.88;;;6.00;;
11394;SDS011;5753;54.402;10.220;2023-01-23T10:52:38;13.70;;;8.52;;
11394;SDS011;5753;54.402;10.220;2023-01-23T10:57:45;14.85;;;8.80;;
11394;SDS011;5753;54.402;10.220;2023-01-23T11:00:26;8.50;;;6.13;;
11394;SDS011;5753;54.402;10.220;2023-01-23T11:03:16;9.93;;;6.15;;
11394;SDS011;5753;54.402;10.220;2023-01-23T11:05:50;11.38;;;7.70;;
11394;SDS011;5753;54.402;10.220;2023-01-23T11:08:35;11.13;;;8.30;;
11394;SDS011;5753;54.402;10.220;2023-01-23T11:11:20;13.85;;;6.63;;
11394;SDS011;5753;54.402;10.220;2023-01-23T11:16:38;8.77;;;6.60;;
11394;SDS011;5753;54.402;10.220;2023-01-23T11:21:35;7.43;;;5.97;;
11394;SDS011;5753;54.402;10.220;2023-01-23T11:27:14;10.88;;;8.30;;
11394;SDS011;5753;54.402;10.220;2023-01-23T11:32:52;10.27;;;6.43;;
11394;SDS011;5753;54.402;10.220;2023-01-23T11:36:01;8.23;;;5.57;;
11394;SDS011;5753;54.402;10.220;2023-01-23T11:38:29;15.98;;;7.93;;
11394;SDS011;5753;54.402;10.220;2023-01-23T11:41:06;12.50;;;8.18;;
11394;SDS011;5753;54.402;10.220;2023-01-23T11:43:36;14.13;;;6.95;;
11394;SDS011;5753;54.402;10.220;2023-01-23T11:51:23;9.32;;;7.68;;
11394;SDS011;5753;54.402;10.220;2023-01-23T12:00:21;11.57;;;8.93;;
11394;SDS011;5753;54.402;10.220;2023-01-23T12:03:21;17.60;;;9.77;;
11394;SDS011;5753;54.402;10.220;2023-01-23T12:11:40;13.02;;;7.32;;
11394;SDS011;5753;54.402;10.220;2023-01-23T12:25:39;15.05;;;9.45;;
11394;SDS011;5753;54.402;10.220;2023-01-23T12:30:58;17.08;;;10.63;;
11394;SDS011;5753;54.402;10.220;2023-01-23T12:36:33;27.75;;;10.35;;
11394;SDS011;5753;54.402;10.220;2023-01-23T12:42:33;19.60;;;10.88;;
11394;SDS011;5753;54.402;10.220;2023-01-23T12:45:19;14.27;;;8.60;;
11394;SDS011;5753;54.402;10.220;2023-01-23T12:50:34;26.50;;;12.60;;
11394;SDS011;5753;54.402;10.220;2023-01-23T12:53:09;18.00;;;10.27;;
11394;SDS011;5753;54.402;10.220;2023-01-23T12:55:51;18.45;;;10.57;;
11394;SDS011;5753;54.402;10.220;2023-01-23T12:58:31;19.70;;;11.73;;
11394;SDS011;5753;54.402;10.220;2023-01-23T13:04:10;25.38;;;12.15;;
11394;SDS011;5753;54.402;10.220;2023-01-23T13:07:06;25.80;;;13.38;;
11394;SDS011;5753;54.402;10.220;2023-01-23T13:12:46;29.80;;;14.38;;
11394;SDS011;5753;54.402;10.220;2023-01-23T13:17:48;25.85;;;13.07;;
11394;SDS011;5753;54.402;10.220;2023-01-23T13:28:47;27.75;;;12.82;;
11394;SDS011;5753;54.402;10.220;2023-01-23T13:31:34;16.02;;;10.43;;
11394;SDS011;5753;54.402;10.220;2023-01-23T13:34:02;36.67;;;13.30;;
11394;SDS011;5753;54.402;10.220;2023-01-23T13:36:41;18.80;;;12.02;;
11394;SDS011;5753;54.402;10.220;2023-01-23T13:41:46;18.92;;;12.80;;
11394;SDS011;5753;54.402;10.220;2023-01-23T13:44:24;23.17;;;11.02;;
11394;SDS011;5753;54.402;10.220;2023-01-23T13:46:57;29.77;;;13.85;;
11394;SDS011;5753;54.402;10.220;2023-01-23T13:52:27;20.10;;;9.65;;
11394;SDS011;5753;54.402;10.220;2023-01-23T13:55:26;28.77;;;13.30;;
11394;SDS011;5753;54.402;10.220;2023-01-23T13:58:22;12.43;;;8.00;;
11394;SDS011;5753;54.402;10.220;2023-01-23T14:03:40;24.17;;;14.35;;
11394;SDS011;5753;54.402;10.220;2023-01-23T14:06:32;24.98;;;15.82;;
11394;SDS011;5753;54.402;10.220;2023-01-23T14:09:00;18.80;;;12.35;;
11394;SDS011;5753;54.402;10.220;2023-01-23T14:11:45;23.95;;;9.25;;
11394;SDS011;5753;54.402;10.220;2023-01-23T14:14:13;29.13;;;11.55;;
11394;SDS011;5753;54.402;10.220;2023-01-23T14:16:58;27.15;;;12.88;;
11394;SDS011;5753;54.402;10.220;2023-01-23T14:19:25;19.52;;;12.70;;
11394;SDS011;5753;54.402;10.220;2023-01-23T14:21:59;23.35;;;8.85;;
11394;SDS011;5753;54.402;10.220;2023-01-23T14:24:38;17.90;;;12.25;;
11394;SDS011;5753;54.402;10.220;2023-01-23T14:27:20;22.95;;;15.07;;
11394;SDS011;5753;54.402;10.220;2023-01-23T14:32:50;26.95;;;13.32;;
11394;SDS011;5753;54.402;10.220;2023-01-23T14:37:42;19.67;;;12.52;;
11394;SDS011;5753;54.402;10.220;2023-01-23T14:40:19;19.02;;;11.50;;
11394;SDS011;5753;54.402;10.220;2023-01-23T14:42:54;19.90;;;8.35;;
11394;SDS011;5753;54.402;10.220;2023-01-23T14:45:27;21.38;;;13.85;;
11394;SDS011;5753;54.402;10.220;2023-01-23T14:47:55;19.05;;;12.82;;
11394;SDS011;5753;54.402;10.220;2023-01-23T14:50:23;22.58;;;10.13;;
11394;SDS011;5753;54.402;10.220;2023-01-23T14:53:00;14.35;;;11.13;;
11394;SDS011;5753;54.402;10.220;2023-01-23T14:55:28;23.27;;;11.73;;
11394;SDS011;5753;54.402;10.220;2023-01-23T14:57:58;22.00;;;11.45;;
11394;SDS011;5753;54.402;10.220;2023-01-23T15:00:27;21.23;;;11.38;;
11394;SDS011;5753;54.402;10.220;2023-01-23T15:02:54;17.67;;;9.05;;
11394;SDS011;5753;54.402;10.220;2023-01-23T15:05:21;26.02;;;13.48;;
11394;SDS011;5753;54.402;10.220;2023-01-23T15:08:02;14.35;;;10.82;;
11394;SDS011;5753;54.402;10.220;2023-01-23T15:10:50;18.85;;;12.63;;
11394;SDS011;5753;54.402;10.220;2023-01-23T15:13:27;21.00;;;10.65;;
11394;SDS011;5753;54.402;10.220;2023-01-23T15:16:10;25.60;;;11.15;;
11394;SDS011;5753;54.402;10.220;2023-01-23T15:21:30;18.48;;;11.35;;
11394;SDS011;5753;54.402;10.220;2023-01-23T15:24:15;24.08;;;16.55;;
11394;SDS011;5753;54.402;10.220;2023-01-23T15:29:22;16.13;;;7.95;;
11394;SDS011;5753;54.402;10.220;2023-01-23T15:31:50;15.18;;;10.48;;
11394;SDS011;5753;54.402;10.220;2023-01-23T15:34:22;22.27;;;11.02;;
11394;SDS011;5753;54.402;10.220;2023-01-23T15:42:20;19.48;;;13.77;;
11394;SDS011;5753;54.402;10.220;2023-01-23T15:44:55;21.67;;;11.88;;
11394;SDS011;5753;54.402;10.220;2023-01-23T15:47:34;20.60;;;11.20;;
11394;SDS011;5753;54.402;10.220;2023-01-23T15:50:00;24.23;;;9.80;;
11394;SDS011;5753;54.402;10.220;2023-01-23T15:52:41;18.60;;;9.90;;
11394;SDS011;5753;54.402;10.220;2023-01-23T15:55:12;19.30;;;12.65;;
11394;SDS011;5753;54.402;10.220;2023-01-23T15:57:38;17.58;;;11.52;;
11394;SDS011;5753;54.402;10.220;2023-01-23T16:00:13;24.23;;;13.73;;
11394;SDS011;5753;54.402;10.220;2023-01-23T16:02:54;32.20;;;14.93;;
11394;SDS011;5753;54.402;10.220;2023-01-23T16:05:22;22.88;;;11.80;;
11394;SDS011;5753;54.402;10.220;2023-01-23T16:07:51;22.70;;;13.65;;
11394;SDS011;5753;54.402;10.220;2023-01-23T16:12:49;24.88;;;14.88;;
11394;SDS011;5753;54.402;10.220;2023-01-23T16:17:45;31.58;;;16.13;;
11394;SDS011;5753;54.402;10.220;2023-01-23T16:20:15;23.35;;;12.00;;
11394;SDS011;5753;54.402;10.220;2023-01-23T16:22:44;23.02;;;12.50;;
11394;SDS011;5753;54.402;10.220;2023-01-23T16:25:16;28.83;;;14.13;;
11394;SDS011;5753;54.402;10.220;2023-01-23T16:27:49;19.52;;;13.65;;
11394;SDS011;5753;54.402;10.220;2023-01-23T16:30:18;20.23;;;11.88;;
11394;SDS011;5753;54.402;10.220;2023-01-23T16:32:45;21.50;;;14.25;;
11394;SDS011;5753;54.402;10.220;2023-01-23T16:35:12;16.00;;;11.80;;
11394;SDS011;5753;54.402;10.220;2023-01-23T16:37:40;22.55;;;11.00;;
11394;SDS011;5753;54.402;10.220;2023-01-23T16:40:29;18.35;;;10.38;;
11394;SDS011;5753;54.402;10.220;2023-01-23T16:42:55;17.88;;;12.77;;
11394;SDS011;5753;54.402;10.220;2023-01-23T16:45:26;22.42;;;14.50;;
11394;SDS011;5753;54.402;10.220;2023-01-23T16:47:53;24.25;;;14.38;;
11394;SDS011;5753;54.402;10.220;2023-01-23T16:50:33;22.85;;;12.20;;
11394;SDS011;5753;54.402;10.220;2023-01-23T16:53:08;29.02;;;16.10;;
11394;SDS011;5753;54.402;10.220;2023-01-23T16:55:46;27.90;;;13.40;;
11394;SDS011;5753;54.402;10.220;2023-01-23T16:58:14;23.00;;;15.02;;
11394;SDS011;5753;54.402;10.220;2023-01-23T17:00:43;20.15;;;12.30;;
11394;SDS011;5753;54.402;10.220;2023-01-23T17:03:12;27.05;;;15.15;;
11394;SDS011;5753;54.402;10.220;2023-01-23T17:05:46;26.88;;;16.40;;
11394;SDS011;5753;54.402;10.220;2023-01-23T17:08:16;23.02;;;12.55;;
11394;SDS011;5753;54.402;10.220;2023-01-23T17:10:45;21.17;;;14.18;;
11394;SDS011;5753;54.402;10.220;2023-01-23T17:13:14;22.75;;;13.50;;
11394;SDS011;5753;54.402;10.220;2023-01-23T17:15:42;22.45;;;13.00;;
11394;SDS011;5753;54.402;10.220;2023-01-23T17:18:18;23.75;;;14.63;;
11394;SDS011;5753;54.402;10.220;2023-01-23T17:20:45;26.30;;;12.98;;